Atalandi — SVBA — position and weather

sailwx.info

Track history (hours):
 
Tides and Currents Weather Stations Pressure Air Temp Water Temp Dewpoint Dewpoint Depression Visibility Wind Speed Wind Dir Waves Ship Positions

Atalandi

Last reported at 2016-Dec-10 04:13 UTC. Time now 2016-Dec-11 06:18 UTC.
Position N 36°07' W 005°24'.

Length 248 m; draft 13.1 m.

Type: Ship (hazmat cat A). MMSI: 240269000.

Date/timePositionNaut miles runAvg speedWind from/ knotsBaromVisibWave heightAir tempDewpointWater temp
2016-Dec-10 04:13N 36°07' W 005°24'0 0.0
2016-Dec-09 07:28N 36°07' W 005°24'0 0.0
2016-Dec-09 06:31N 36°07' W 005°24'0 0.0
2016-Dec-09 05:31N 36°07' W 005°24'0 0.0
2016-Dec-09 04:31N 36°07' W 005°24'0 0.3
2016-Dec-09 03:33N 36°07' W 005°24'2 1.6
2016-Dec-09 02:33N 36°06' W 005°23'8 7.7
2016-Dec-09 01:34N 36°05' W 005°13'3 3.2
2016-Dec-09 00:33N 36°05' W 005°09'8 8.5
2016-Dec-08 23:33N 36°01' W 005°18'1010.3
2016-Dec-08 22:34N 35°57' W 005°30'10 9.5
2016-Dec-08 21:33N 35°55' W 005°42'10 9.8
2016-Dec-08 20:31N 35°55' W 005°54'225 9.7
2016-Dec-07 21:23N 37°49' W 009°57'1112.2
2016-Dec-07 20:31N 37°59' W 009°60'1212.2
2016-Dec-07 19:33N 38°11' W 010°03'1212.2
2016-Dec-07 18:33N 38°23' W 010°06'1212.0
2016-Dec-07 17:33N 38°34' W 010°10'1212.0
2016-Dec-07 16:33N 38°46' W 010°12'1211.9
2016-Dec-07 15:34N 38°58' W 010°12'1211.6
2016-Dec-07 14:33N 39°10' W 010°13'1211.9
2016-Dec-07 13:33N 39°22' W 010°13'1611.9
2016-Dec-07 12:12N 39°38' W 010°14'  
2016-Dec-05 03:25N 50°58' W 011°00'51710.9
2016-Dec-03 04:06N 58°46' W 004°40'713.5
2016-Dec-03 03:33N 58°46' W 004°26'1313.3
2016-Dec-03 02:34N 58°45' W 004°00'1313.0
2016-Dec-03 01:34N 58°45' W 003°35'1212.4
2016-Dec-03 00:34N 58°45' W 003°11'7 7.4
2016-Dec-02 23:34N 58°52' W 003°05'1 1.4
2016-Dec-02 22:34N 58°51' W 003°07'0 0.0
2016-Dec-02 21:32N 58°51' W 003°07'0 0.0
2016-Dec-02 20:32N 58°51' W 003°07'0 0.0
2016-Dec-02 19:32N 58°51' W 003°07'0 0.0
2016-Dec-02 18:32N 58°51' W 003°07'0 0.0
2016-Dec-02 17:32N 58°51' W 003°07'0 0.0
2016-Dec-02 16:32N 58°51' W 003°07'0 0.0
2016-Dec-02 15:32N 58°51' W 003°07'0 0.0
2016-Dec-02 14:32N 58°51' W 003°07'0 0.0
2016-Dec-02 13:32N 58°51' W 003°07'0 0.0
2016-Dec-02 12:32N 58°51' W 003°07'0 0.0
2016-Dec-02 11:32N 58°51' W 003°07'0 0.0
2016-Dec-02 10:32N 58°51' W 003°07'0 0.0
2016-Dec-02 09:32N 58°51' W 003°07'0 0.0
2016-Dec-02 08:32N 58°51' W 003°07'0 0.0
2016-Dec-02 07:32N 58°51' W 003°07'0 0.0
2016-Dec-02 06:32N 58°51' W 003°07'0 0.0
2016-Dec-02 05:32N 58°51' W 003°07'0 0.0
2016-Dec-02 04:32N 58°51' W 003°07'0 0.0
2016-Dec-02 03:32N 58°51' W 003°07'0 0.0
2016-Dec-02 02:32N 58°51' W 003°07'0 0.0
2016-Dec-02 01:32N 58°51' W 003°07'0 0.0
2016-Dec-02 00:32N 58°51' W 003°07'0 0.0
2016-Dec-01 23:32N 58°51' W 003°07'0 0.0
2016-Dec-01 22:32N 58°51' W 003°07'0 0.0
2016-Dec-01 21:32N 58°51' W 003°07'0 0.0
2016-Dec-01 20:32N 58°51' W 003°07'0 0.0
2016-Dec-01 19:32N 58°51' W 003°07'0 0.0
2016-Dec-01 18:32N 58°51' W 003°07'0 0.0
2016-Dec-01 17:32N 58°51' W 003°07'0 0.0
2016-Dec-01 16:32N 58°51' W 003°07'0 0.0
2016-Dec-01 15:32N 58°51' W 003°07'0 0.0
2016-Dec-01 14:32N 58°51' W 003°07'0 0.0
2016-Dec-01 13:32N 58°51' W 003°07'0 0.0
2016-Dec-01 12:32N 58°51' W 003°07'0 0.0
2016-Dec-01 11:32N 58°51' W 003°07'0 0.0
2016-Dec-01 10:32N 58°51' W 003°07'0 0.2
2016-Dec-01 09:33N 58°51' W 003°07'2 1.8
2016-Dec-01 08:32N 58°52' W 003°04'0 0.1
2016-Dec-01 07:32N 58°52' W 003°04'0 0.0
2016-Dec-01 06:32N 58°52' W 003°04'0 0.0
2016-Dec-01 05:32N 58°52' W 003°04'0 0.0
2016-Dec-01 04:32N 58°52' W 003°04'0 0.1
2016-Dec-01 03:32N 58°52' W 003°04'0 0.1
2016-Dec-01 02:32N 58°52' W 003°04'0 0.1
2016-Dec-01 01:32N 58°52' W 003°04'0 0.1
2016-Dec-01 00:32N 58°52' W 003°04'0 0.1
2016-Nov-30 23:32N 58°52' W 003°04'0 0.1
2016-Nov-30 22:32N 58°52' W 003°04'0 0.1
2016-Nov-30 21:32N 58°52' W 003°04'0 0.0
2016-Nov-30 20:32N 58°52' W 003°04'0 0.0
2016-Nov-30 19:32N 58°52' W 003°04'0 0.1
2016-Nov-30 18:32N 58°52' W 003°04'0 0.1
2016-Nov-30 17:32N 58°52' W 003°04'0 0.0
2016-Nov-30 16:32N 58°52' W 003°04'0 0.1
2016-Nov-30 15:32N 58°52' W 003°04'0 0.0
2016-Nov-30 14:32N 58°52' W 003°04'0 0.0
2016-Nov-30 13:32N 58°52' W 003°04'0 0.0
2016-Nov-30 12:32N 58°52' W 003°04'0 0.0
2016-Nov-30 11:32N 58°52' W 003°04'0 0.0
2016-Nov-30 10:32N 58°52' W 003°04'0 0.0
2016-Nov-30 09:32N 58°52' W 003°04'0 0.0
2016-Nov-30 08:32N 58°52' W 003°04'0 0.0
2016-Nov-30 07:32N 58°52' W 003°04'0 0.0
2016-Nov-30 06:32N 58°52' W 003°04'0 0.0
2016-Nov-30 05:32N 58°52' W 003°04'0 0.1
2016-Nov-30 04:32N 58°52' W 003°04'  
Track history (hours):
 
Tides and Currents Weather Stations Pressure Air Temp Water Temp Dewpoint Dewpoint Depression Visibility Wind Speed Wind Dir Waves Ship Positions

Atalandi

Last reported at 2016-Dec-10 04:13 UTC. Time now 2016-Dec-11 06:18 UTC.
Position N 36°07' W 005°24'.

Length 248 m; draft 13.1 m.

Type: Ship (hazmat cat A). MMSI: 240269000.

Date/timePositionNaut miles runAvg speedWind from/ knotsBaromVisibWave heightAir tempDewpointWater temp
2016-Dec-10 04:13N 36°07' W 005°24'0 0.0
2016-Dec-09 07:28N 36°07' W 005°24'0 0.0
2016-Dec-09 06:31N 36°07' W 005°24'0 0.0
2016-Dec-09 05:31N 36°07' W 005°24'0 0.0
2016-Dec-09 04:31N 36°07' W 005°24'0 0.3
2016-Dec-09 03:33N 36°07' W 005°24'2 1.6
2016-Dec-09 02:33N 36°06' W 005°23'8 7.7
2016-Dec-09 01:34N 36°05' W 005°13'3 3.2
2016-Dec-09 00:33N 36°05' W 005°09'8 8.5
2016-Dec-08 23:33N 36°01' W 005°18'1010.3
2016-Dec-08 22:34N 35°57' W 005°30'10 9.5
2016-Dec-08 21:33N 35°55' W 005°42'10 9.8
2016-Dec-08 20:31N 35°55' W 005°54'225 9.7
2016-Dec-07 21:23N 37°49' W 009°57'1112.2
2016-Dec-07 20:31N 37°59' W 009°60'1212.2
2016-Dec-07 19:33N 38°11' W 010°03'1212.2
2016-Dec-07 18:33N 38°23' W 010°06'1212.0
2016-Dec-07 17:33N 38°34' W 010°10'1212.0
2016-Dec-07 16:33N 38°46' W 010°12'1211.9
2016-Dec-07 15:34N 38°58' W 010°12'1211.6
2016-Dec-07 14:33N 39°10' W 010°13'1211.9
2016-Dec-07 13:33N 39°22' W 010°13'1611.9
2016-Dec-07 12:12N 39°38' W 010°14'  
2016-Dec-05 03:25N 50°58' W 011°00'51710.9
2016-Dec-03 04:06N 58°46' W 004°40'713.5
2016-Dec-03 03:33N 58°46' W 004°26'1313.3
2016-Dec-03 02:34N 58°45' W 004°00'1313.0
2016-Dec-03 01:34N 58°45' W 003°35'1212.4
2016-Dec-03 00:34N 58°45' W 003°11'7 7.4
2016-Dec-02 23:34N 58°52' W 003°05'1 1.4
2016-Dec-02 22:34N 58°51' W 003°07'0 0.0
2016-Dec-02 21:32N 58°51' W 003°07'0 0.0
2016-Dec-02 20:32N 58°51' W 003°07'0 0.0
2016-Dec-02 19:32N 58°51' W 003°07'0 0.0
2016-Dec-02 18:32N 58°51' W 003°07'0 0.0
2016-Dec-02 17:32N 58°51' W 003°07'0 0.0
2016-Dec-02 16:32N 58°51' W 003°07'0 0.0
2016-Dec-02 15:32N 58°51' W 003°07'0 0.0
2016-Dec-02 14:32N 58°51' W 003°07'0 0.0
2016-Dec-02 13:32N 58°51' W 003°07'0 0.0
2016-Dec-02 12:32N 58°51' W 003°07'0 0.0
2016-Dec-02 11:32N 58°51' W 003°07'0 0.0
2016-Dec-02 10:32N 58°51' W 003°07'0 0.0
2016-Dec-02 09:32N 58°51' W 003°07'0 0.0
2016-Dec-02 08:32N 58°51' W 003°07'0 0.0
2016-Dec-02 07:32N 58°51' W 003°07'0 0.0
2016-Dec-02 06:32N 58°51' W 003°07'0 0.0
2016-Dec-02 05:32N 58°51' W 003°07'0 0.0
2016-Dec-02 04:32N 58°51' W 003°07'0 0.0
2016-Dec-02 03:32N 58°51' W 003°07'0 0.0
2016-Dec-02 02:32N 58°51' W 003°07'0 0.0
2016-Dec-02 01:32N 58°51' W 003°07'0 0.0
2016-Dec-02 00:32N 58°51' W 003°07'0 0.0
2016-Dec-01 23:32N 58°51' W 003°07'0 0.0
2016-Dec-01 22:32N 58°51' W 003°07'0 0.0
2016-Dec-01 21:32N 58°51' W 003°07'0 0.0
2016-Dec-01 20:32N 58°51' W 003°07'0 0.0
2016-Dec-01 19:32N 58°51' W 003°07'0 0.0
2016-Dec-01 18:32N 58°51' W 003°07'0 0.0
2016-Dec-01 17:32N 58°51' W 003°07'0 0.0
2016-Dec-01 16:32N 58°51' W 003°07'0 0.0
2016-Dec-01 15:32N 58°51' W 003°07'0 0.0
2016-Dec-01 14:32N 58°51' W 003°07'0 0.0
2016-Dec-01 13:32N 58°51' W 003°07'0 0.0
2016-Dec-01 12:32N 58°51' W 003°07'0 0.0
2016-Dec-01 11:32N 58°51' W 003°07'0 0.0
2016-Dec-01 10:32N 58°51' W 003°07'0 0.2
2016-Dec-01 09:33N 58°51' W 003°07'2 1.8
2016-Dec-01 08:32N 58°52' W 003°04'0 0.1
2016-Dec-01 07:32N 58°52' W 003°04'0 0.0
2016-Dec-01 06:32N 58°52' W 003°04'0 0.0
2016-Dec-01 05:32N 58°52' W 003°04'0 0.0
2016-Dec-01 04:32N 58°52' W 003°04'0 0.1
2016-Dec-01 03:32N 58°52' W 003°04'0 0.1
2016-Dec-01 02:32N 58°52' W 003°04'0 0.1
2016-Dec-01 01:32N 58°52' W 003°04'0 0.1
2016-Dec-01 00:32N 58°52' W 003°04'0 0.1
2016-Nov-30 23:32N 58°52' W 003°04'0 0.1
2016-Nov-30 22:32N 58°52' W 003°04'0 0.1
2016-Nov-30 21:32N 58°52' W 003°04'0 0.0
2016-Nov-30 20:32N 58°52' W 003°04'0 0.0
2016-Nov-30 19:32N 58°52' W 003°04'0 0.1
2016-Nov-30 18:32N 58°52' W 003°04'0 0.1
2016-Nov-30 17:32N 58°52' W 003°04'0 0.0
2016-Nov-30 16:32N 58°52' W 003°04'0 0.1
2016-Nov-30 15:32N 58°52' W 003°04'0 0.0
2016-Nov-30 14:32N 58°52' W 003°04'0 0.0
2016-Nov-30 13:32N 58°52' W 003°04'0 0.0
2016-Nov-30 12:32N 58°52' W 003°04'0 0.0
2016-Nov-30 11:32N 58°52' W 003°04'0 0.0
2016-Nov-30 10:32N 58°52' W 003°04'0 0.0
2016-Nov-30 09:32N 58°52' W 003°04'0 0.0
2016-Nov-30 08:32N 58°52' W 003°04'0 0.0
2016-Nov-30 07:32N 58°52' W 003°04'0 0.0
2016-Nov-30 06:32N 58°52' W 003°04'0 0.0
2016-Nov-30 05:32N 58°52' W 003°04'0 0.1
2016-Nov-30 04:32N 58°52' W 003°04'  

Dump ship's entire track history